createdAt,value
2019-04-20T00:00:44.341Z,29.90
2019-04-20T00:03:11.981Z,29.90
2019-04-20T00:05:43.420Z,30.00
2019-04-20T00:08:20.987Z,30.00
2019-04-20T00:10:56.101Z,30.10
2019-04-20T00:13:32.512Z,30.20
2019-04-20T00:15:53.566Z,30.20
2019-04-20T00:18:38.189Z,30.30
2019-04-20T00:21:06.651Z,30.30
2019-04-20T00:23:38.334Z,30.40
2019-04-20T00:26:17.408Z,30.40
2019-04-20T00:29:04.492Z,30.50
2019-04-20T00:31:29.712Z,30.60
2019-04-20T00:33:56.186Z,30.60
2019-04-20T00:36:18.099Z,30.70
2019-04-20T00:38:53.709Z,30.80
2019-04-20T00:41:23.012Z,30.90
2019-04-20T00:43:58.853Z,31.00
2019-04-20T00:46:32.925Z,31.10
2019-04-20T00:49:16.378Z,31.20
2019-04-20T00:51:53.829Z,31.30
2019-04-20T00:54:05.538Z,31.40
2019-04-20T00:56:39.286Z,31.60
2019-04-20T00:59:25.797Z,31.70
2019-04-20T01:02:03.668Z,31.90
2019-04-20T01:04:38.850Z,32.00
2019-04-20T01:07:01.413Z,32.10
2019-04-20T01:09:24.443Z,32.30
2019-04-20T01:11:56.499Z,32.40
2019-04-20T01:14:37.991Z,32.60
2019-04-20T01:17:11.303Z,32.70
2019-04-20T01:19:32.822Z,32.80
2019-04-20T01:22:07.907Z,33.00
2019-04-20T01:24:40.453Z,33.10
2019-04-20T01:27:25.855Z,33.20
2019-04-20T01:29:50.434Z,33.40
2019-04-20T01:32:27.733Z,33.50
2019-04-20T01:34:58.592Z,33.80
2019-04-20T01:37:34.281Z,34.00
2019-04-20T01:39:55.910Z,34.10
2019-04-20T01:42:27.471Z,34.20
2019-04-20T01:44:58.688Z,34.40
2019-04-20T01:47:36.237Z,34.50
2019-04-20T01:50:08.511Z,34.70
2019-04-20T01:52:47.051Z,34.80
2019-04-20T01:55:28.947Z,34.90
2019-04-20T01:58:06.300Z,35.10
2019-04-20T02:00:25.290Z,35.20
2019-04-20T02:02:57.044Z,35.30
2019-04-20T02:05:29.699Z,35.40
2019-04-20T02:07:58.453Z,35.50
2019-04-20T02:10:39.549Z,35.70
2019-04-20T02:13:04.727Z,35.80
2019-04-20T02:15:40.351Z,35.90
2019-04-20T02:18:19.110Z,36.00
2019-04-20T02:21:01.292Z,36.10
2019-04-20T02:23:26.270Z,36.30
2019-04-20T02:25:44.006Z,36.40
2019-04-20T02:28:34.779Z,36.60
2019-04-20T02:31:33.070Z,36.70
2019-04-20T02:33:57.820Z,36.80
2019-04-20T02:41:44.740Z,37.10
2019-04-20T02:46:41.395Z,37.30
2019-04-20T02:49:19.862Z,37.40
2019-04-20T02:51:47.563Z,37.40
2019-04-20T02:54:25.984Z,37.50
2019-04-20T03:01:48.542Z,37.60
2019-04-20T03:04:03.324Z,37.70
2019-04-20T03:06:40.029Z,37.80
2019-04-20T03:09:27.032Z,37.90
2019-04-20T03:12:04.567Z,38.00
2019-04-20T03:14:21.824Z,38.00
2019-04-20T03:17:04.320Z,38.10
2019-04-20T03:19:28.635Z,38.10
2019-04-20T03:22:09.446Z,38.20
2019-04-20T03:24:44.071Z,38.40
2019-04-20T03:27:07.179Z,38.50
2019-04-20T03:29:46.888Z,38.60
2019-04-20T03:32:57.962Z,38.70
2019-04-20T03:35:05.237Z,38.90
2019-04-20T03:39:55.532Z,39.10
2019-04-20T03:42:09.295Z,39.20
2019-04-20T03:44:50.488Z,39.20
2019-04-20T03:47:25.585Z,39.30
2019-04-20T03:50:07.827Z,39.40
2019-04-20T03:52:37.696Z,39.40
2019-04-20T03:55:14.810Z,39.40
2019-04-20T03:57:49.744Z,39.50
2019-04-20T04:00:18.919Z,39.50
2019-04-20T04:05:30.313Z,39.60
2019-04-20T04:07:46.726Z,39.60
2019-04-20T04:10:29.402Z,39.70
2019-04-20T04:12:51.456Z,39.80
2019-04-20T04:15:23.122Z,39.80
2019-04-20T04:17:57.985Z,39.90
2019-04-20T04:20:34.373Z,39.90
2019-04-20T04:23:16.987Z,40.00
2019-04-20T04:25:48.325Z,40.00
2019-04-20T04:28:22.540Z,40.10
2019-04-20T04:30:59.522Z,40.20
2019-04-20T04:35:59.360Z,40.30
2019-04-20T04:38:37.742Z,40.40
2019-04-20T04:41:16.727Z,40.40
2019-04-20T04:43:40.047Z,40.40
2019-04-20T04:45:53.286Z,40.40
2019-04-20T04:48:31.055Z,40.60
2019-04-20T04:51:03.419Z,40.70
2019-04-20T04:53:43.226Z,40.80
2019-04-20T04:56:07.146Z,40.80
2019-04-20T04:58:34.114Z,40.90
2019-04-20T05:01:11.756Z,41.00
2019-04-20T05:04:02.736Z,41.00
2019-04-20T05:06:26.450Z,41.00
2019-04-20T05:08:49.759Z,41.00
2019-04-20T05:11:17.307Z,41.00
2019-04-20T05:13:55.706Z,41.10
2019-04-20T05:16:43.145Z,41.20
2019-04-20T05:21:53.864Z,41.40
2019-04-20T05:24:17.893Z,41.40
2019-04-20T05:26:57.891Z,41.60
2019-04-20T05:29:14.473Z,41.90
2019-04-20T05:31:48.618Z,42.10
2019-04-20T05:34:30.827Z,42.30
2019-04-20T05:37:03.658Z,42.30
2019-04-20T05:39:39.928Z,42.40
2019-04-20T05:42:12.353Z,42.40
2019-04-20T05:44:41.301Z,42.40
2019-04-20T05:47:15.823Z,42.40
2019-04-20T05:49:45.383Z,42.40
2019-04-20T05:52:31.096Z,42.40
2019-04-20T05:54:51.359Z,42.40
2019-04-20T05:57:25.120Z,42.40
2019-04-20T06:00:01.795Z,42.40
2019-04-20T06:02:27.396Z,42.40
2019-04-20T06:05:04.248Z,42.40
2019-04-20T06:07:48.690Z,42.50
2019-04-20T06:10:05.897Z,42.60
2019-04-20T06:12:40.276Z,42.60
2019-04-20T06:15:13.295Z,42.70
2019-04-20T06:17:51.506Z,42.80
2019-04-20T06:20:27.162Z,42.90
2019-04-20T06:22:59.898Z,42.90
2019-04-20T06:25:55.947Z,43.00
2019-04-20T06:28:02.030Z,43.00
2019-04-20T06:30:30.884Z,43.10
2019-04-20T06:33:17.254Z,43.20
2019-04-20T06:36:01.251Z,43.30
2019-04-20T06:38:27.923Z,43.30
2019-04-20T06:40:59.389Z,43.30
2019-04-20T06:43:16.232Z,43.30
2019-04-20T06:45:57.738Z,43.30
2019-04-20T06:48:29.372Z,43.30
2019-04-20T06:50:49.499Z,43.30
2019-04-20T06:53:32.567Z,43.30
2019-04-20T06:56:08.413Z,43.10
2019-04-20T06:58:46.058Z,42.90
2019-04-20T07:01:05.683Z,42.90
2019-04-20T07:03:58.066Z,42.90
2019-04-20T07:06:30.725Z,43.10
2019-04-20T07:08:56.748Z,43.20
2019-04-20T07:11:22.291Z,43.20
2019-04-20T07:13:36.177Z,43.20
2019-04-20T07:16:21.155Z,43.20
2019-04-20T07:18:54.862Z,43.20
2019-04-20T07:21:47.472Z,43.30
2019-04-20T07:24:04.727Z,43.30
2019-04-20T07:26:37.455Z,43.30
2019-04-20T07:29:18.494Z,43.20
2019-04-20T07:31:43.088Z,43.20
2019-04-20T07:34:15.633Z,43.10
2019-04-20T07:36:51.536Z,43.10
2019-04-20T07:39:21.610Z,43.10
2019-04-20T07:41:54.715Z,43.20
2019-04-20T07:44:36.375Z,43.20
2019-04-20T07:47:01.577Z,43.10
2019-04-20T07:49:27.740Z,43.10
2019-04-20T07:51:43.890Z,43.10
2019-04-20T07:54:37.257Z,43.10
2019-04-20T07:57:08.274Z,43.10
2019-04-20T07:59:27.488Z,43.10
2019-04-20T08:02:15.987Z,43.20
2019-04-20T08:04:42.232Z,43.20
2019-04-20T08:07:00.523Z,43.20
2019-04-20T08:09:39.778Z,43.20
2019-04-20T08:12:28.245Z,43.10
2019-04-20T08:15:04.417Z,43.20
2019-04-20T08:17:48.413Z,43.20
2019-04-20T08:19:57.803Z,43.20
2019-04-20T08:22:35.500Z,43.20
2019-04-20T08:24:55.427Z,43.30
2019-04-20T08:27:18.085Z,43.30
2019-04-20T08:30:02.649Z,43.30
2019-04-20T08:32:44.680Z,43.10
2019-04-20T08:35:23.120Z,43.00
2019-04-20T08:38:03.604Z,42.90
2019-04-20T08:40:19.493Z,42.80
2019-04-20T08:43:09.467Z,42.90
2019-04-20T08:45:36.165Z,42.90
2019-04-20T08:48:09.763Z,42.90
2019-04-20T08:50:36.251Z,42.90
2019-04-20T08:53:16.020Z,42.90
2019-04-20T08:55:33.519Z,42.90
2019-04-20T08:57:51.689Z,42.90
2019-04-20T09:00:29.667Z,42.90
2019-04-20T09:03:02.327Z,42.80
2019-04-20T09:05:41.365Z,42.80
2019-04-20T09:08:09.308Z,42.70
2019-04-20T09:10:50.842Z,42.70
2019-04-20T09:13:18.649Z,42.60
2019-04-20T09:15:38.537Z,42.60
2019-04-20T09:18:20.646Z,42.50
2019-04-20T09:20:54.990Z,42.40
2019-04-20T09:23:31.432Z,42.30
2019-04-20T09:26:10.474Z,42.20
2019-04-20T09:28:33.450Z,42.20
2019-04-20T09:31:11.961Z,42.20
2019-04-20T09:33:47.008Z,42.20
2019-04-20T09:36:18.670Z,42.20
2019-04-20T09:38:47.807Z,42.20
2019-04-20T09:41:34.534Z,42.20
2019-04-20T09:43:45.277Z,42.20
2019-04-20T09:46:17.957Z,42.00
2019-04-20T09:48:55.609Z,42.00
2019-04-20T09:51:42.371Z,41.90
2019-04-20T09:54:04.342Z,41.70
2019-04-20T09:56:39.509Z,41.70
2019-04-20T09:59:16.657Z,41.60
2019-04-20T10:01:41.427Z,41.50
2019-04-20T10:04:05.508Z,41.50
2019-04-20T10:06:37.717Z,41.30
2019-04-20T10:09:09.986Z,41.20
2019-04-20T10:11:43.610Z,41.10
2019-04-20T10:14:14.358Z,41.00
2019-04-20T10:16:45.282Z,41.00
2019-04-20T10:19:20.607Z,40.90
2019-04-20T10:21:50.645Z,40.80
2019-04-20T10:24:21.741Z,40.70
2019-04-20T10:26:52.640Z,40.70
2019-04-20T10:29:23.719Z,40.60
2019-04-20T10:31:57.173Z,40.60
2019-04-20T10:34:28.488Z,40.50
2019-04-20T10:36:59.577Z,40.40
2019-04-20T10:39:32.290Z,40.30
2019-04-20T10:42:04.174Z,40.30
2019-04-20T10:44:34.751Z,40.20
2019-04-20T10:47:07.107Z,40.20
2019-04-20T10:49:38.785Z,40.10
2019-04-20T10:52:11.589Z,39.90
2019-04-20T10:54:42.683Z,39.80
2019-04-20T10:57:13.573Z,39.80
2019-04-20T10:59:45.616Z,39.70
2019-04-20T11:02:17.022Z,39.60
2019-04-20T11:04:48.508Z,39.50
2019-04-20T11:07:20.678Z,39.40
2019-04-20T11:10:05.280Z,39.40
2019-04-20T11:12:24.420Z,39.30
2019-04-20T11:14:56.415Z,39.20
2019-04-20T11:17:29.769Z,39.10
2019-04-20T11:20:01.208Z,39.00
2019-04-20T11:22:35.242Z,38.90
2019-04-20T11:25:08.263Z,38.70
2019-04-20T11:27:40.416Z,38.60
2019-04-20T11:30:12.055Z,38.40
2019-04-20T11:32:44.234Z,38.30
2019-04-20T11:35:24.929Z,38.20
2019-04-20T11:37:49.054Z,38.00
2019-04-20T11:40:21.146Z,37.90
2019-04-20T11:42:53.284Z,37.80
2019-04-20T11:45:24.797Z,37.70
2019-04-20T11:47:55.796Z,37.50
2019-04-20T11:50:27.512Z,37.40
2019-04-20T11:52:59.326Z,37.40
2019-04-20T11:55:30.716Z,37.20
2019-04-20T11:58:01.767Z,37.20
2019-04-20T12:00:44.312Z,37.10
2019-04-20T12:03:16.081Z,37.00
2019-04-20T12:05:45.870Z,36.90
2019-04-20T12:08:13.334Z,36.80
2019-04-20T12:10:50.320Z,36.70
2019-04-20T12:13:18.348Z,36.70
2019-04-20T12:15:49.657Z,36.60
2019-04-20T12:18:20.728Z,36.50
2019-04-20T12:20:52.611Z,36.50
2019-04-20T12:23:24.468Z,36.40
2019-04-20T12:25:56.397Z,36.40
2019-04-20T12:28:29.479Z,36.30
2019-04-20T12:31:04.167Z,36.30
2019-04-20T12:33:32.843Z,36.30
2019-04-20T12:36:05.977Z,36.20
2019-04-20T12:38:37.476Z,36.20
2019-04-20T12:41:10.968Z,36.10
2019-04-20T12:43:41.528Z,36.10
2019-04-20T12:46:15.398Z,36.10
2019-04-20T12:48:44.863Z,36.10
2019-04-20T12:51:17.532Z,36.00
2019-04-20T12:53:48.946Z,36.00
2019-04-20T12:56:20.300Z,35.90
2019-04-20T12:58:53.530Z,35.90
2019-04-20T13:01:24.552Z,35.90
2019-04-20T13:03:55.813Z,35.90
2019-04-20T13:06:27.976Z,35.80
2019-04-20T13:09:02.025Z,35.80
2019-04-20T13:11:44.364Z,35.80
2019-04-20T13:14:10.398Z,35.80
2019-04-20T13:16:41.647Z,35.70
2019-04-20T13:19:13.125Z,35.70
2019-04-20T13:21:45.111Z,35.70
2019-04-20T13:24:16.739Z,35.60
2019-04-20T13:26:49.097Z,35.60
2019-04-20T13:29:20.063Z,35.60
2019-04-20T13:31:52.012Z,35.50
2019-04-20T13:34:24.345Z,35.50
2019-04-20T13:36:55.973Z,35.50
2019-04-20T13:39:26.895Z,35.50
2019-04-20T13:42:08.728Z,35.40
2019-04-20T13:44:30.671Z,35.40
2019-04-20T13:47:02.969Z,35.40
2019-04-20T13:49:34.498Z,35.40
2019-04-20T13:52:06.721Z,35.40
2019-04-20T13:54:37.989Z,35.40
2019-04-20T13:57:11.087Z,35.40
2019-04-20T13:59:42.377Z,35.40
2019-04-20T14:02:15.101Z,35.40
2019-04-20T14:04:48.677Z,35.40
2019-04-20T14:07:20.330Z,35.40
2019-04-20T14:09:53.468Z,35.30
2019-04-20T14:12:30.689Z,35.30
2019-04-20T14:14:57.284Z,35.30
2019-04-20T14:17:29.221Z,35.30
2019-04-20T14:20:06.953Z,35.30
2019-04-20T14:22:34.173Z,35.30
2019-04-20T14:25:05.285Z,35.30
2019-04-20T14:27:37.115Z,35.30
2019-04-20T14:30:09.331Z,35.20
2019-04-20T14:32:41.045Z,35.20
2019-04-20T14:35:12.560Z,35.20
2019-04-20T14:37:43.830Z,35.10
2019-04-20T14:40:14.814Z,35.10
2019-04-20T14:42:49.733Z,35.10
2019-04-20T14:45:20.542Z,35.00
2019-04-20T14:47:51.928Z,35.00
2019-04-20T14:50:24.005Z,35.00
2019-04-20T14:52:55.610Z,35.00
2019-04-20T14:55:26.654Z,35.00
2019-04-20T14:57:59.598Z,34.90
2019-04-20T15:00:35.307Z,34.90
2019-04-20T15:03:08.001Z,34.90
2019-04-20T15:05:39.122Z,34.90
2019-04-20T15:08:10.044Z,34.80
2019-04-20T15:10:42.679Z,34.80
2019-04-20T15:13:14.887Z,34.70
2019-04-20T15:15:46.415Z,34.70
2019-04-20T15:18:19.605Z,34.70
2019-04-20T15:20:53.269Z,34.70
2019-04-20T15:23:25.822Z,34.60
2019-04-20T15:25:56.630Z,34.60
2019-04-20T15:28:28.476Z,34.60
2019-04-20T15:31:00.393Z,34.50
2019-04-20T15:33:32.736Z,34.50
2019-04-20T15:36:04.259Z,34.50
2019-04-20T15:38:35.483Z,34.50
2019-04-20T15:41:12.099Z,34.40
2019-04-20T15:43:41.611Z,34.40
2019-04-20T15:46:13.037Z,34.40
2019-04-20T15:48:44.089Z,34.40
2019-04-20T15:51:17.101Z,34.30
2019-04-20T15:53:49.402Z,34.30
2019-04-20T15:56:20.687Z,34.20
2019-04-20T15:58:52.513Z,34.30
2019-04-20T16:01:26.078Z,34.20
2019-04-20T16:03:59.341Z,34.20
2019-04-20T16:06:29.532Z,34.20
2019-04-20T16:09:02.074Z,34.10
2019-04-20T16:11:33.295Z,34.10
2019-04-20T16:14:05.382Z,34.10
2019-04-20T16:16:37.398Z,34.10
2019-04-20T16:19:14.633Z,34.00
2019-04-20T16:21:41.622Z,34.00
2019-04-20T16:24:15.012Z,34.00
2019-04-20T16:26:47.462Z,34.00
2019-04-20T16:29:19.827Z,33.90
2019-04-20T16:31:52.120Z,33.90
2019-04-20T16:34:23.377Z,33.80
2019-04-20T16:36:56.116Z,33.80
2019-04-20T16:39:28.186Z,33.80
2019-04-20T16:42:00.331Z,33.70
2019-04-20T16:44:31.895Z,33.70
2019-04-20T16:47:03.961Z,33.70
2019-04-20T16:49:35.292Z,33.60
2019-04-20T16:52:07.345Z,33.60
2019-04-20T16:54:39.702Z,33.60
2019-04-20T16:57:12.601Z,33.60
2019-04-20T16:59:47.258Z,33.50
2019-04-20T17:02:17.539Z,33.50
2019-04-20T17:04:51.523Z,33.50
2019-04-20T17:07:22.397Z,33.50
2019-04-20T17:09:54.003Z,33.40
2019-04-20T17:12:30.266Z,33.40
2019-04-20T17:15:01.373Z,33.40
2019-04-20T17:17:33.541Z,33.30
2019-04-20T17:20:05.048Z,33.30
2019-04-20T17:22:37.150Z,33.30
2019-04-20T17:25:10.173Z,33.30
2019-04-20T17:27:44.613Z,33.20
2019-04-20T17:30:20.080Z,33.20
2019-04-20T17:32:49.768Z,33.20
2019-04-20T17:35:31.666Z,33.10
2019-04-20T17:37:53.615Z,33.10
2019-04-20T17:40:39.740Z,33.10
2019-04-20T17:43:06.549Z,33.00
2019-04-20T17:45:41.913Z,33.00
2019-04-20T17:48:17.612Z,33.00
2019-04-20T17:50:55.682Z,33.00
2019-04-20T17:53:20.489Z,32.90
2019-04-20T17:55:44.874Z,32.90
2019-04-20T17:58:17.926Z,32.90
2019-04-20T18:00:52.881Z,32.90
2019-04-20T18:03:58.915Z,32.80
2019-04-20T18:06:14.583Z,32.80
2019-04-20T18:08:46.840Z,32.80
2019-04-20T18:11:08.004Z,32.80
2019-04-20T18:13:34.114Z,32.70
2019-04-20T18:16:30.200Z,32.60
2019-04-20T18:18:49.444Z,32.60
2019-04-20T18:21:12.856Z,32.70
2019-04-20T18:23:46.579Z,32.60
2019-04-20T18:26:41.996Z,32.60
2019-04-20T18:29:26.007Z,32.50
2019-04-20T18:31:23.652Z,32.50
2019-04-20T18:33:56.171Z,32.50
2019-04-20T18:36:31.221Z,32.50
2019-04-20T18:39:04.975Z,32.40
2019-04-20T18:41:38.406Z,32.50
2019-04-20T18:44:04.512Z,32.40
2019-04-20T18:47:00.351Z,32.40
2019-04-20T18:49:24.358Z,32.30
2019-04-20T18:51:40.143Z,32.30
2019-04-20T18:54:18.385Z,32.30
2019-04-20T18:56:47.543Z,32.20
2019-04-20T18:59:16.883Z,32.20
2019-04-20T19:01:48.813Z,32.20
2019-04-20T19:04:19.828Z,32.20
2019-04-20T19:06:51.990Z,32.20
2019-04-20T19:09:29.752Z,32.10
2019-04-20T19:12:02.549Z,32.10
2019-04-20T19:14:36.511Z,32.10
2019-04-20T19:17:15.013Z,32.10
2019-04-20T19:19:43.356Z,32.00
2019-04-20T19:22:10.261Z,32.00
2019-04-20T19:24:42.877Z,32.00
2019-04-20T19:27:17.016Z,32.00
2019-04-20T19:29:55.440Z,32.00
2019-04-20T19:32:34.688Z,31.90
2019-04-20T19:35:01.280Z,31.90
2019-04-20T19:37:31.165Z,31.90
2019-04-20T19:40:07.051Z,31.90
2019-04-20T19:42:42.281Z,31.80
2019-04-20T19:45:30.168Z,31.80
2019-04-20T19:47:51.202Z,31.80
2019-04-20T19:50:36.805Z,31.80
2019-04-20T19:53:15.488Z,31.70
2019-04-20T19:55:31.783Z,31.70
2019-04-20T19:58:03.555Z,31.70
2019-04-20T20:00:23.004Z,31.60
2019-04-20T20:02:54.317Z,31.60
2019-04-20T20:05:31.446Z,31.50
2019-04-20T20:08:07.638Z,31.50
2019-04-20T20:10:35.573Z,31.50
2019-04-20T20:13:04.102Z,31.50
2019-04-20T20:15:36.490Z,31.40
2019-04-20T20:18:28.223Z,31.40
2019-04-20T20:21:02.278Z,31.40
2019-04-20T20:23:16.182Z,31.40
2019-04-20T20:25:49.661Z,31.30
2019-04-20T20:28:31.181Z,31.30
2019-04-20T20:31:06.040Z,31.30
2019-04-20T20:33:39.757Z,31.30
2019-04-20T20:36:06.610Z,31.30
2019-04-20T20:38:36.995Z,31.20
2019-04-20T20:41:13.856Z,31.20
2019-04-20T20:43:44.777Z,31.20
2019-04-20T20:46:19.443Z,31.20
2019-04-20T20:49:04.844Z,31.20
2019-04-20T20:51:36.845Z,31.20
2019-04-20T20:53:54.034Z,31.20
2019-04-20T20:56:24.027Z,31.10
2019-04-20T20:58:59.262Z,31.10
2019-04-20T21:01:25.349Z,31.10
2019-04-20T21:03:54.742Z,31.10
2019-04-20T21:06:26.534Z,31.10
2019-04-20T21:09:01.458Z,31.00
2019-04-20T21:11:34.014Z,31.00
2019-04-20T21:14:04.461Z,31.00
2019-04-20T21:16:40.465Z,31.00
2019-04-20T21:19:21.398Z,30.90
2019-04-20T21:21:49.747Z,30.90
2019-04-20T21:24:17.698Z,30.90
2019-04-20T21:26:45.978Z,30.90
2019-04-20T21:29:21.345Z,30.80
2019-04-20T21:31:57.802Z,30.80
2019-04-20T21:34:23.623Z,30.80
2019-04-20T21:37:01.583Z,30.80
2019-04-20T21:39:37.355Z,30.70
2019-04-20T21:42:05.422Z,30.70
2019-04-20T21:44:37.472Z,30.70
2019-04-20T21:47:05.290Z,30.70
2019-04-20T21:49:50.978Z,30.60
2019-04-20T21:52:18.385Z,30.60
2019-04-20T21:54:42.233Z,30.60
2019-04-20T21:57:15.047Z,30.60
2019-04-20T21:59:49.110Z,30.60
2019-04-20T22:02:24.097Z,30.50
2019-04-20T22:04:53.495Z,30.50
2019-04-20T22:07:26.174Z,30.50
2019-04-20T22:09:58.382Z,30.40
2019-04-20T22:12:37.590Z,30.40
2019-04-20T22:15:08.122Z,30.40
2019-04-20T22:17:35.978Z,30.30
2019-04-20T22:20:20.110Z,30.40
2019-04-20T22:22:57.254Z,30.30
2019-04-20T22:25:36.361Z,30.30
2019-04-20T22:27:46.281Z,30.20
2019-04-20T22:30:17.884Z,30.20
2019-04-20T22:32:50.677Z,30.20
2019-04-20T22:35:22.578Z,30.20
2019-04-20T22:37:59.816Z,30.20
2019-04-20T22:40:31.574Z,30.20
2019-04-20T22:43:01.598Z,30.10
2019-04-20T22:45:35.140Z,30.20
2019-04-20T22:48:07.126Z,30.10
2019-04-20T22:50:50.948Z,30.10
2019-04-20T22:53:25.955Z,30.10
2019-04-20T22:56:02.127Z,30.10
2019-04-20T22:58:28.860Z,30.10
2019-04-20T23:00:53.697Z,30.00
2019-04-20T23:03:18.810Z,30.10
2019-04-20T23:05:50.913Z,30.10
2019-04-20T23:08:22.420Z,30.10
2019-04-20T23:10:53.632Z,30.10
2019-04-20T23:13:29.414Z,30.10
2019-04-20T23:16:00.837Z,30.10
2019-04-20T23:18:29.058Z,30.10
2019-04-20T23:21:05.117Z,30.10
2019-04-20T23:23:33.928Z,30.20
2019-04-20T23:26:07.237Z,30.20
2019-04-20T23:28:40.961Z,30.20
2019-04-20T23:31:15.221Z,30.20
2019-04-20T23:33:43.589Z,30.30
2019-04-20T23:36:14.624Z,30.30
2019-04-20T23:38:49.040Z,30.40
2019-04-20T23:41:19.665Z,30.40
2019-04-20T23:43:54.021Z,30.40
2019-04-20T23:46:28.311Z,30.50
2019-04-20T23:49:00.218Z,30.50
2019-04-20T23:51:50.943Z,30.60
2019-04-20T23:54:11.016Z,30.70
2019-04-20T23:56:37.517Z,30.80
2019-04-20T23:59:08.617Z,30.80
